createdAt,value
2022-09-10T00:01:27.592Z,102397.63
2022-09-10T00:03:56.658Z,102393.88
2022-09-10T00:06:27.626Z,102396.38
2022-09-10T00:08:59.034Z,102389.97
2022-09-10T00:11:32.308Z,102387.75
2022-09-10T00:14:00.933Z,102392.63
2022-09-10T00:16:29.966Z,102381.03
2022-09-10T00:18:57.962Z,102381.47
2022-09-10T00:21:25.806Z,102379.31
2022-09-10T00:23:54.424Z,102376.88
2022-09-10T00:26:30.512Z,102374.97
2022-09-10T00:29:02.007Z,102378.03
2022-09-10T00:31:31.536Z,102376.03
2022-09-10T00:34:00.882Z,102374.00
2022-09-10T00:36:37.368Z,102379.25
2022-09-10T00:39:10.715Z,102373.91
2022-09-10T00:41:40.836Z,102374.59
2022-09-10T00:44:37.863Z,102372.19
2022-09-10T00:47:12.761Z,102377.31
2022-09-10T00:49:51.801Z,102375.97
2022-09-10T00:52:19.343Z,102370.00
2022-09-10T00:54:47.955Z,102372.66
2022-09-10T00:57:20.802Z,102373.56
2022-09-10T01:00:02.186Z,102367.78
2022-09-10T01:02:30.343Z,102374.44
2022-09-10T01:04:58.371Z,102363.72
2022-09-10T01:07:29.275Z,102368.63
2022-09-10T01:10:00.015Z,102365.78
2022-09-10T01:12:39.428Z,102365.59
2022-09-10T01:15:19.991Z,102359.72
2022-09-10T01:18:03.572Z,102357.97
2022-09-10T01:20:58.265Z,102361.00
2022-09-10T01:23:34.623Z,102355.47
2022-09-10T01:26:25.300Z,102354.44
2022-09-10T01:29:13.931Z,102348.09
2022-09-10T01:32:05.840Z,102348.75
2022-09-10T01:34:42.102Z,102352.13
2022-09-10T01:37:30.324Z,102347.81
2022-09-10T01:40:00.007Z,102348.03
2022-09-10T01:42:28.610Z,102343.25
2022-09-10T01:44:57.996Z,102339.31
2022-09-10T01:47:34.595Z,102339.44
2022-09-10T01:50:39.524Z,102345.75
2022-09-10T01:53:33.516Z,102335.50
2022-09-10T01:56:24.397Z,102334.34
2022-09-10T01:58:56.013Z,102329.78
2022-09-10T02:01:43.566Z,102339.88
2022-09-10T02:04:14.934Z,102339.56
2022-09-10T02:06:47.709Z,102327.66
2022-09-10T02:09:16.681Z,102324.19
2022-09-10T02:11:47.625Z,102328.88
2022-09-10T02:14:16.680Z,102331.50
2022-09-10T02:16:47.696Z,102324.56
2022-09-10T02:19:16.595Z,102321.41
2022-09-10T02:21:44.316Z,102317.56
2022-09-10T02:24:13.450Z,102313.22
2022-09-10T02:26:44.302Z,102320.69
2022-09-10T02:29:15.410Z,102307.50
2022-09-10T02:31:44.106Z,102312.31
2022-09-10T02:34:11.808Z,102312.94
2022-09-10T02:36:40.508Z,102309.97
2022-09-10T02:39:08.206Z,102315.72
2022-09-10T02:41:35.776Z,102309.00
2022-09-10T02:44:04.216Z,102305.44
2022-09-10T02:46:32.174Z,102307.94
2022-09-10T02:48:59.894Z,102306.66
2022-09-10T02:51:27.486Z,102312.53
2022-09-10T02:53:55.912Z,102308.81
2022-09-10T02:56:23.864Z,102302.66
2022-09-10T02:58:51.522Z,102308.47
2022-09-10T03:01:21.319Z,102302.06
2022-09-10T03:03:51.009Z,102300.19
2022-09-10T03:06:19.250Z,102296.47
2022-09-10T03:08:47.606Z,102303.06
2022-09-10T03:11:16.664Z,102300.34
2022-09-10T03:13:45.991Z,102294.31
2022-09-10T03:16:14.182Z,102300.47
2022-09-10T03:18:42.443Z,102293.81
2022-09-10T03:21:14.923Z,102291.75
2022-09-10T03:23:44.874Z,102297.75
2022-09-10T03:26:14.684Z,102284.81
2022-09-10T03:28:44.023Z,102291.28
2022-09-10T03:31:13.701Z,102289.44
2022-09-10T03:33:41.822Z,102278.09
2022-09-10T03:36:13.302Z,102282.38
2022-09-10T03:38:41.880Z,102282.63
2022-09-10T03:41:10.138Z,102282.50
2022-09-10T03:43:37.846Z,102276.38
2022-09-10T03:46:05.728Z,102283.38
2022-09-10T03:48:33.384Z,102283.25
2022-09-10T03:51:00.802Z,102277.97
2022-09-10T03:53:28.364Z,102284.25
2022-09-10T03:55:56.400Z,102277.97
2022-09-10T03:58:24.003Z,102285.88
2022-09-10T04:00:51.789Z,102281.50
2022-09-10T04:03:20.269Z,102284.88
2022-09-10T04:05:47.746Z,102275.69
2022-09-10T04:08:15.713Z,102278.16
2022-09-10T04:10:46.927Z,102281.84
2022-09-10T04:13:14.568Z,102285.50
2022-09-10T04:15:46.160Z,102286.13
2022-09-10T04:18:14.394Z,102274.97
2022-09-10T04:20:43.646Z,102271.22
2022-09-10T04:23:11.146Z,102274.38
2022-09-10T04:25:38.817Z,102270.09
2022-09-10T04:28:06.569Z,102262.75
2022-09-10T04:30:34.310Z,102258.63
2022-09-10T04:33:02.625Z,102257.03
2022-09-10T04:35:30.373Z,102261.38
2022-09-10T04:37:58.055Z,102257.69
2022-09-10T04:40:27.303Z,102260.94
2022-09-10T04:42:54.848Z,102260.59
2022-09-10T04:45:22.464Z,102262.84
2022-09-10T04:47:49.936Z,102262.44
2022-09-10T04:50:17.486Z,102257.75
2022-09-10T04:52:44.949Z,102267.91
2022-09-10T04:55:12.624Z,102268.19
2022-09-10T04:57:40.246Z,102267.25
2022-09-10T05:00:10.840Z,102258.44
2022-09-10T05:02:39.075Z,102256.56
2022-09-10T05:05:07.192Z,102263.56
2022-09-10T05:07:34.684Z,102268.72
2022-09-10T05:10:02.363Z,102259.63
2022-09-10T05:12:30.103Z,102270.50
2022-09-10T05:14:57.758Z,102262.63
2022-09-10T05:17:25.364Z,102259.03
2022-09-10T05:19:53.058Z,102258.44
2022-09-10T05:22:21.864Z,102264.53
2022-09-10T05:24:49.686Z,102255.84
2022-09-10T05:27:17.172Z,102259.22
2022-09-10T05:29:45.148Z,102258.47
2022-09-10T05:32:13.476Z,102250.84
2022-09-10T05:34:41.276Z,102251.03
2022-09-10T05:37:08.926Z,102248.97
2022-09-10T05:39:36.735Z,102248.34
2022-09-10T05:42:04.758Z,102253.75
2022-09-10T05:44:32.432Z,102243.16
2022-09-10T05:47:00.056Z,102243.31
2022-09-10T05:49:27.695Z,102237.78
2022-09-10T05:51:55.740Z,102234.47
2022-09-10T05:54:23.240Z,102241.56
2022-09-10T05:56:51.254Z,102239.13
2022-09-10T05:59:18.771Z,102241.88
2022-09-10T06:01:46.520Z,102240.47
2022-09-10T06:04:14.093Z,102233.56
2022-09-10T06:06:41.681Z,102239.03
2022-09-10T06:09:09.695Z,102235.53
2022-09-10T06:11:37.478Z,102234.09
2022-09-10T06:14:05.339Z,102232.09
2022-09-10T06:16:33.848Z,102235.97
2022-09-10T06:19:01.388Z,102235.25
2022-09-10T06:21:34.100Z,102236.88
2022-09-10T06:24:02.041Z,102237.50
2022-09-10T06:26:29.578Z,102240.66
2022-09-10T06:28:58.544Z,102239.06
2022-09-10T06:31:27.194Z,102245.16
2022-09-10T06:33:54.973Z,102242.59
2022-09-10T06:36:22.698Z,102242.88
2022-09-10T06:38:50.179Z,102240.66
2022-09-10T06:41:18.639Z,102237.22
2022-09-10T06:43:46.774Z,102241.84
2022-09-10T06:46:44.138Z,102233.03
2022-09-10T06:49:05.501Z,102235.28
2022-09-10T06:51:34.051Z,102235.34
2022-09-10T06:54:02.927Z,102231.03
2022-09-10T06:56:30.500Z,102232.78
2022-09-10T06:59:02.140Z,102235.38
2022-09-10T07:01:30.166Z,102226.41
2022-09-10T07:03:59.714Z,102225.31
2022-09-10T07:06:29.187Z,102223.97
2022-09-10T07:08:58.056Z,102221.31
2022-09-10T07:11:28.166Z,102214.09
2022-09-10T07:13:56.169Z,102218.50
2022-09-10T07:16:25.949Z,102218.16
2022-09-10T07:18:56.305Z,102212.78
2022-09-10T07:21:25.563Z,102214.06
2022-09-10T07:23:58.315Z,102210.09
2022-09-10T07:26:26.073Z,102209.44
2022-09-10T07:28:54.028Z,102206.38
2022-09-10T07:31:25.525Z,102204.81
2022-09-10T07:33:53.022Z,102217.13
2022-09-10T07:36:21.168Z,102212.38
2022-09-10T07:38:52.184Z,102210.44
2022-09-10T07:41:20.804Z,102215.66
2022-09-10T07:43:52.652Z,102209.31
2022-09-10T07:46:21.159Z,102207.56
2022-09-10T07:48:53.384Z,102207.94
2022-09-10T07:51:21.634Z,102210.47
2022-09-10T07:53:54.240Z,102205.69
2022-09-10T07:56:23.349Z,102208.13
2022-09-10T07:58:51.799Z,102210.22
2022-09-10T08:01:23.672Z,102206.84
2022-09-10T08:03:51.489Z,102197.63
2022-09-10T08:06:19.480Z,102204.81
2022-09-10T08:08:46.977Z,102200.63
2022-09-10T08:11:17.512Z,102207.50
2022-09-10T08:13:47.577Z,102201.91
2022-09-10T08:16:19.168Z,102198.16
2022-09-10T08:18:48.062Z,102195.16
2022-09-10T08:21:17.715Z,102189.75
2022-09-10T08:23:51.023Z,102185.97
2022-09-10T08:26:18.727Z,102185.63
2022-09-10T08:28:47.414Z,102193.50
2022-09-10T08:31:16.407Z,102189.47
2022-09-10T08:33:49.572Z,102191.22
2022-09-10T08:36:18.725Z,102184.00
2022-09-10T08:38:46.605Z,102184.84
2022-09-10T08:41:21.928Z,102185.97
2022-09-10T08:44:00.514Z,102185.13
2022-09-10T08:46:32.274Z,102189.72
2022-09-10T08:49:02.592Z,102176.19
2022-09-10T08:52:03.430Z,102179.47
2022-09-10T08:55:09.690Z,102170.97
2022-09-10T08:57:39.283Z,102168.78
2022-09-10T09:00:13.285Z,102168.16
2022-09-10T09:03:01.321Z,102175.22
2022-09-10T09:05:43.564Z,102175.31
2022-09-10T09:08:15.881Z,102174.44
2022-09-10T09:10:56.722Z,102180.97
2022-09-10T09:13:47.624Z,102166.59
2022-09-10T09:16:26.161Z,102166.06
2022-09-10T09:18:56.646Z,102167.31
2022-09-10T09:21:37.457Z,102164.72
2022-09-10T09:24:22.597Z,102161.09
2022-09-10T09:26:50.246Z,102166.91
2022-09-10T09:29:49.118Z,102159.84
2022-09-10T09:32:20.496Z,102162.53
2022-09-10T09:34:57.599Z,102162.53
2022-09-10T09:37:33.232Z,102159.16
2022-09-10T09:40:21.547Z,102162.22
2022-09-10T09:42:52.275Z,102165.50
2022-09-10T09:45:32.230Z,102160.53
2022-09-10T09:47:59.884Z,102157.72
2022-09-10T09:50:31.880Z,102152.03
2022-09-10T09:52:59.336Z,102155.66
2022-09-10T09:55:35.012Z,102149.22
2022-09-10T09:58:29.067Z,102140.72
2022-09-10T10:01:13.132Z,102147.16
2022-09-10T10:03:58.976Z,102145.00
2022-09-10T10:06:31.256Z,102138.19
2022-09-10T10:09:20.365Z,102136.22
2022-09-10T10:11:55.666Z,102132.84
2022-09-10T10:14:32.436Z,102132.09
2022-09-10T10:17:01.198Z,102133.09
2022-09-10T10:19:36.693Z,102131.66
2022-09-10T10:22:19.471Z,102126.75
2022-09-10T10:24:49.993Z,102126.47
2022-09-10T10:27:35.290Z,102116.31
2022-09-10T10:30:16.955Z,102128.97
2022-09-10T10:32:53.531Z,102121.97
2022-09-10T10:35:39.369Z,102115.88
2022-09-10T10:38:22.868Z,102115.88
2022-09-10T10:41:11.422Z,102113.31
2022-09-10T10:43:56.104Z,102115.53
2022-09-10T10:46:49.900Z,102113.22
2022-09-10T10:49:29.136Z,102112.00
2022-09-10T10:52:14.103Z,102108.47
2022-09-10T10:55:25.740Z,102100.56
2022-09-10T10:58:05.989Z,102100.72
2022-09-10T11:00:43.566Z,102093.75
2022-09-10T11:03:31.452Z,102102.38
2022-09-10T11:06:08.314Z,102083.81
2022-09-10T11:08:40.228Z,102089.63
2022-09-10T11:11:19.182Z,102084.53
2022-09-10T11:13:56.826Z,102079.03
2022-09-10T11:16:40.570Z,102085.50
2022-09-10T11:19:25.584Z,102073.94
2022-09-10T11:22:09.724Z,102085.97
2022-09-10T11:24:47.392Z,102076.63
2022-09-10T11:27:20.684Z,102081.50
2022-09-10T11:30:17.951Z,102083.31
2022-09-10T11:33:20.090Z,102075.03
2022-09-10T11:35:55.644Z,102073.56
2022-09-10T11:38:44.834Z,102067.25
2022-09-10T11:41:30.034Z,102070.53
2022-09-10T11:44:16.410Z,102061.66
2022-09-10T11:47:17.919Z,102062.53
2022-09-10T11:49:59.878Z,102065.81
2022-09-10T11:52:33.686Z,102055.97
2022-09-10T11:55:03.957Z,102051.69
2022-09-10T11:58:11.652Z,102048.50
2022-09-10T12:00:52.792Z,102042.34
2022-09-10T12:03:58.155Z,102048.16
2022-09-10T12:06:52.708Z,102040.47
2022-09-10T12:09:44.784Z,102042.94
2022-09-10T12:12:37.754Z,102041.47
2022-09-10T12:15:26.606Z,102034.16
2022-09-10T12:18:13.350Z,102031.75
2022-09-10T12:20:51.412Z,102027.84
2022-09-10T12:23:40.107Z,102019.72
2022-09-10T12:26:12.567Z,102016.41
2022-09-10T12:28:42.704Z,102015.94
2022-09-10T12:31:11.681Z,102005.25
2022-09-10T12:33:42.230Z,102006.34
2022-09-10T12:36:11.247Z,102007.22
2022-09-10T12:39:16.843Z,102001.84
2022-09-10T12:41:44.382Z,102001.97
2022-09-10T12:44:36.330Z,101994.78
2022-09-10T12:47:18.617Z,101997.31
2022-09-10T12:50:03.179Z,101995.50
2022-09-10T12:52:52.625Z,101981.53
2022-09-10T12:55:32.368Z,101988.84
2022-09-10T12:58:24.508Z,101980.22
2022-09-10T13:00:54.740Z,101988.94
2022-09-10T13:03:25.764Z,101976.28
2022-09-10T13:05:56.362Z,101979.91
2022-09-10T13:08:42.067Z,101979.31
2022-09-10T13:11:24.138Z,101984.09
2022-09-10T13:14:04.214Z,101977.13
2022-09-10T13:16:31.606Z,101976.78
2022-09-10T13:19:31.238Z,101973.59
2022-09-10T13:21:58.755Z,101967.44
2022-09-10T13:24:36.219Z,101965.34
2022-09-10T13:27:12.947Z,101961.84
2022-09-10T13:29:45.178Z,101968.25
2022-09-10T13:32:41.898Z,101964.38
2022-09-10T13:35:47.416Z,101958.41
2022-09-10T13:38:33.093Z,101955.88
2022-09-10T13:41:06.536Z,101950.53
2022-09-10T13:43:52.790Z,101941.03
2022-09-10T13:46:30.411Z,101937.41
2022-09-10T13:49:07.745Z,101934.22
2022-09-10T13:51:56.674Z,101936.50
2022-09-10T13:54:26.952Z,101928.47
2022-09-10T13:56:56.207Z,101926.41
2022-09-10T13:59:31.011Z,101927.00
2022-09-10T14:02:02.207Z,101923.34
2022-09-10T14:04:35.610Z,101921.78
2022-09-10T14:07:26.555Z,101917.66
2022-09-10T14:10:00.269Z,101913.28
2022-09-10T14:12:32.324Z,101921.91
2022-09-10T14:15:04.511Z,101923.47
2022-09-10T14:17:38.212Z,101923.72
2022-09-10T14:20:24.444Z,101916.56
2022-09-10T14:23:04.763Z,101910.00
2022-09-10T14:25:38.384Z,101912.06
2022-09-10T14:28:19.210Z,101909.28
2022-09-10T14:30:49.263Z,101918.16
2022-09-10T14:33:32.964Z,101915.59
2022-09-10T14:36:21.625Z,101919.38
2022-09-10T14:38:57.964Z,101915.06
2022-09-10T14:41:27.804Z,101914.28
2022-09-10T14:44:15.115Z,101917.06
2022-09-10T14:47:01.032Z,101906.50
2022-09-10T14:49:31.674Z,101905.50
2022-09-10T14:52:00.330Z,101905.25
2022-09-10T14:54:28.924Z,101899.19
2022-09-10T14:56:58.720Z,101908.44
2022-09-10T14:59:34.612Z,101910.75
2022-09-10T15:02:12.972Z,101900.91
2022-09-10T15:04:40.474Z,101908.19
2022-09-10T15:07:10.082Z,101898.25
2022-09-10T15:09:37.880Z,101898.25
2022-09-10T15:12:06.919Z,101898.47
2022-09-10T15:14:36.121Z,101898.22
2022-09-10T15:17:03.844Z,101907.56
2022-09-10T15:19:32.359Z,101906.34
2022-09-10T15:21:59.899Z,101899.63
2022-09-10T15:24:28.363Z,101895.47
2022-09-10T15:26:56.550Z,101894.72
2022-09-10T15:29:26.193Z,101897.28
2022-09-10T15:31:54.369Z,101890.22
2022-09-10T15:34:21.954Z,101899.81
2022-09-10T15:36:49.492Z,101889.75
2022-09-10T15:39:16.907Z,101886.16
2022-09-10T15:41:45.038Z,101885.78
2022-09-10T15:44:12.824Z,101886.41
2022-09-10T15:46:42.161Z,101884.94
2022-09-10T15:49:10.045Z,101888.69
2022-09-10T15:51:38.417Z,101896.97
2022-09-10T15:54:06.397Z,101891.00
2022-09-10T15:56:34.123Z,101889.41
2022-09-10T15:59:01.944Z,101894.16
2022-09-10T16:01:29.577Z,101892.72
2022-09-10T16:03:59.518Z,101900.00
2022-09-10T16:06:27.778Z,101897.81
2022-09-10T16:08:57.762Z,101901.47
2022-09-10T16:11:25.582Z,101898.06
2022-09-10T16:13:53.428Z,101892.00
2022-09-10T16:16:23.843Z,101897.59
2022-09-10T16:18:56.150Z,101896.38
2022-09-10T16:21:27.147Z,101899.06
2022-09-10T16:23:56.990Z,101899.91
2022-09-10T16:26:30.436Z,101901.84
2022-09-10T16:29:05.847Z,101900.28
2022-09-10T16:31:39.307Z,101900.75
2022-09-10T16:34:10.032Z,101901.97
2022-09-10T16:36:38.274Z,101909.50
2022-09-10T16:39:12.304Z,101911.19
2022-09-10T16:41:41.969Z,101905.22
2022-09-10T16:44:11.269Z,101914.25
2022-09-10T16:46:39.609Z,101903.78
2022-09-10T16:49:11.950Z,101904.38
2022-09-10T16:51:43.482Z,101901.72
2022-09-10T16:54:13.653Z,101906.31
2022-09-10T16:56:46.078Z,101902.31
2022-09-10T16:59:17.784Z,101897.91
2022-09-10T17:01:48.287Z,101899.25
2022-09-10T17:04:26.003Z,101897.78
2022-09-10T17:06:55.996Z,101902.03
2022-09-10T17:09:24.930Z,101889.31
2022-09-10T17:11:52.739Z,101886.91
2022-09-10T17:14:23.268Z,101890.66
2022-09-10T17:16:50.689Z,101889.41
2022-09-10T17:19:23.694Z,101896.16
2022-09-10T17:21:55.171Z,101895.16
2022-09-10T17:24:25.613Z,101890.28
2022-09-10T17:26:55.254Z,101894.16
2022-09-10T17:29:24.973Z,101901.31
2022-09-10T17:31:52.905Z,101895.97
2022-09-10T17:34:21.647Z,101903.97
2022-09-10T17:36:49.554Z,101898.56
2022-09-10T17:39:17.964Z,101901.38
2022-09-10T17:41:45.839Z,101892.78
2022-09-10T17:44:13.805Z,101893.19
2022-09-10T17:46:42.905Z,101892.84
2022-09-10T17:49:14.156Z,101901.09
2022-09-10T17:51:42.753Z,101895.44
2022-09-10T17:54:10.726Z,101889.59
2022-09-10T17:56:38.904Z,101895.44
2022-09-10T17:59:06.902Z,101893.09
2022-09-10T18:01:39.977Z,101896.50
2022-09-10T18:04:12.632Z,101894.28
2022-09-10T18:06:40.915Z,101895.06
2022-09-10T18:09:08.768Z,101895.59
2022-09-10T18:11:39.014Z,101901.44
2022-09-10T18:14:07.289Z,101894.84
2022-09-10T18:16:36.376Z,101894.94
2022-09-10T18:19:12.903Z,101891.44
2022-09-10T18:21:43.790Z,101891.34
2022-09-10T18:24:12.825Z,101900.13
2022-09-10T18:26:42.830Z,101894.66
2022-09-10T18:29:11.865Z,101896.44
2022-09-10T18:31:43.774Z,101896.88
2022-09-10T18:34:14.164Z,101897.38
2022-09-10T18:36:42.116Z,101896.03
2022-09-10T18:39:11.688Z,101894.09
2022-09-10T18:41:42.423Z,101898.69
2022-09-10T18:44:16.754Z,101892.00
2022-09-10T18:46:45.900Z,101896.66
2022-09-10T18:49:20.352Z,101894.31
2022-09-10T18:51:49.254Z,101890.78
2022-09-10T18:54:18.005Z,101890.56
2022-09-10T18:56:48.135Z,101892.72
2022-09-10T18:59:20.552Z,101895.69
2022-09-10T19:01:49.901Z,101891.84
2022-09-10T19:04:21.699Z,101896.34
2022-09-10T19:06:49.887Z,101901.03
2022-09-10T19:09:20.655Z,101890.59
2022-09-10T19:11:50.021Z,101884.09
2022-09-10T19:14:26.393Z,101890.28
2022-09-10T19:16:54.935Z,101887.25
2022-09-10T19:19:26.031Z,101889.19
2022-09-10T19:21:59.597Z,101890.06
2022-09-10T19:24:51.148Z,101887.25
2022-09-10T19:27:15.834Z,101887.41
2022-09-10T19:29:44.084Z,101884.81
2022-09-10T19:32:11.729Z,101897.41
2022-09-10T19:34:39.486Z,101898.50
2022-09-10T19:37:07.374Z,101889.44
2022-09-10T19:39:35.164Z,101891.66
2022-09-10T19:42:02.903Z,101891.53
2022-09-10T19:44:30.536Z,101897.94
2022-09-10T19:46:58.755Z,101904.13
2022-09-10T19:49:26.610Z,101905.81
2022-09-10T19:51:54.374Z,101902.31
2022-09-10T19:54:24.527Z,101908.81
2022-09-10T19:56:51.946Z,101907.22
2022-09-10T19:59:19.656Z,101904.56
2022-09-10T20:01:48.255Z,101916.47
2022-09-10T20:04:16.164Z,101908.38
2022-09-10T20:06:46.011Z,101908.81
2022-09-10T20:09:13.888Z,101910.59
2022-09-10T20:11:41.716Z,101906.44
2022-09-10T20:14:14.542Z,101907.28
2022-09-10T20:16:44.326Z,101906.66
2022-09-10T20:19:14.811Z,101908.25
2022-09-10T20:21:42.487Z,101900.81
2022-09-10T20:24:10.773Z,101905.34
2022-09-10T20:26:41.137Z,101909.72
2022-09-10T20:29:13.873Z,101906.06
2022-09-10T20:31:43.268Z,101907.13
2022-09-10T20:34:13.237Z,101906.59
2022-09-10T20:36:42.340Z,101902.31
2022-09-10T20:39:12.083Z,101907.53
2022-09-10T20:41:40.201Z,101902.44
2022-09-10T20:44:08.333Z,101901.38
2022-09-10T20:46:35.902Z,101905.22
2022-09-10T20:49:03.487Z,101899.78
